Luling, Louisiana
Current Conditions -  °F | °C
As of 10:53 AM on Friday 28 Nov 2014 (Local Time) from KMSY Reporting Station
Clear Clear  
Wind Chill: 55°   Ceiling: Unl
Heat Index: 55°   Visibility: 10mi
Dew Point: 36°   Wind: 6mph
Humidity: 49%   Direction: 150°SSE
Pressure: 30.41"   Gusts: NA
Location:  29.93°N, 90.37°W
Report Text: KMSY 281653Z 15005KT 10SM CLR 13/02 A3041 RMK AO2 SLP302 T01280022
Loading
Personal Weather Stations






























Interactive Weather Map New forecast layout! Learn more

10-Day Weather Forecast

Advertisements
Track Severe Weather on mobile